Time;durP1;ratioP1;P1;durP2;ratioP2;P2;SDS_P1;SDS_P2;PMS_P1;PMS_P2;Temp;Humidity;BMP_temperature;BMP_pressure;BME280_temperature;BME280_humidity;BME280_pressure;Samples;Min_cycle;Max_cycle;Signal;HPM_P1;HPM_P2
2024/04/19 00:01:25;;;;;;;6.45;3.00;;;;;;;;;;5281194;27;20022;-81
2024/04/19 00:03:56;;;;;;;9.50;3.20;;;;;;;;;;5280675;27;20038;-82
2024/04/19 00:06:26;;;;;;;7.32;2.72;;;;;;;;;;5251583;27;20027;-83
2024/04/19 00:08:56;;;;;;;8.10;2.45;;;;;;;;;;5280868;27;20034;-81
2024/04/19 00:11:26;;;;;;;6.28;2.03;;;;;;;;;;5280502;27;20019;-83
2024/04/19 00:13:56;;;;;;;6.03;2.58;;;;;;;;;;5280774;27;20027;-84
2024/04/19 00:16:27;;;;;;;11.23;2.90;;;;;;;;;;5279297;27;20022;-81
2024/04/19 00:18:57;;;;;;;4.70;2.53;;;;;;;;;;5279744;27;20044;-81
2024/04/19 00:21:27;;;;;;;9.73;3.38;;;;;;;;;;5251436;27;20018;-83
2024/04/19 00:23:57;;;;;;;10.43;2.70;;;;;;;;;;5278734;27;20022;-82
2024/04/19 00:26:27;;;;;;;8.48;2.75;;;;;;;;;;5279714;27;20031;-82
2024/04/19 00:28:57;;;;;;;7.22;2.78;;;;;;;;;;5280567;27;20022;-83
2024/04/19 00:31:28;;;;;;;6.53;2.72;;;;;;;;;;5280975;27;20022;-82
2024/04/19 00:33:58;;;;;;;9.50;2.95;;;;;;;;;;5280650;27;20022;-83
2024/04/19 00:36:28;;;;;;;9.23;2.90;;;;;;;;;;5279098;27;20030;-82
2024/04/19 00:38:58;;;;;;;7.97;2.83;;;;;;;;;;5249516;27;20046;-83
2024/04/19 00:41:28;;;;;;;9.25;3.40;;;;;;;;;;5280455;27;20027;-83
2024/04/19 00:43:58;;;;;;;10.32;3.30;;;;;;;;;;5280391;27;20019;-82
2024/04/19 00:46:29;;;;;;;13.77;3.13;;;;;;;;;;5250023;27;20054;-82
2024/04/19 00:49:00;;;;;;;8.98;3.22;;;;;;;;;;5280540;27;20023;-81
2024/04/19 00:51:32;;;;;;;11.25;3.60;;;;;;;;;;5280336;27;20380;-81
2024/04/19 00:54:03;;;;;;;11.30;3.10;;;;;;;;;;5249551;27;20026;-84
2024/04/19 00:56:33;;;;;;;8.43;3.08;;;;;;;;;;5277683;27;20019;-81
2024/04/19 00:59:04;;;;;;;8.85;2.92;;;;;;;;;;5278949;27;20454;-82
2024/04/19 01:01:35;;;;;;;7.47;3.20;;;;;;;;;;5279777;27;20031;-81
2024/04/19 01:04:06;;;;;;;6.80;3.30;;;;;;;;;;5249836;27;20027;-83
2024/04/19 01:06:35;;;;;;;6.70;2.85;;;;;;;;;;5250138;27;20038;-81
2024/04/19 01:09:07;;;;;;;6.85;3.30;;;;;;;;;;5280132;27;20023;-81
2024/04/19 01:11:38;;;;;;;9.10;3.40;;;;;;;;;;5279649;27;20361;-81
2024/04/19 01:14:08;;;;;;;10.40;2.97;;;;;;;;;;5279955;27;20022;-81
2024/04/19 01:16:38;;;;;;;10.80;3.63;;;;;;;;;;5279509;27;20336;-82
2024/04/19 01:19:08;;;;;;;9.18;3.00;;;;;;;;;;5279729;27;20474;-81
2024/04/19 01:21:38;;;;;;;9.45;3.13;;;;;;;;;;5250969;27;20039;-84
2024/04/19 01:24:31;;;;;;;6.40;2.75;;;;;;;;;;5279985;27;20022;-82
2024/04/19 01:27:01;;;;;;;8.60;3.38;;;;;;;;;;5279819;27;20090;-82
2024/04/19 01:29:31;;;;;;;9.13;3.00;;;;;;;;;;5278689;27;20030;-81
2024/04/19 01:32:03;;;;;;;8.07;2.90;;;;;;;;;;5279697;27;20026;-81
2024/04/19 01:34:33;;;;;;;7.80;3.05;;;;;;;;;;5279708;27;20035;-80
2024/04/19 01:37:04;;;;;;;9.10;3.05;;;;;;;;;;5280017;27;20023;-82
2024/04/19 01:39:34;;;;;;;7.10;2.65;;;;;;;;;;5250770;27;20022;-81
2024/04/19 01:42:04;;;;;;;6.70;3.25;;;;;;;;;;5279867;27;20023;-81
2024/04/19 01:44:35;;;;;;;8.80;2.90;;;;;;;;;;5279892;27;20018;-82
2024/04/19 01:47:05;;;;;;;8.55;2.95;;;;;;;;;;5222471;27;20022;-81
2024/04/19 01:49:35;;;;;;;8.07;3.03;;;;;;;;;;5279047;27;20519;-82
2024/04/19 01:52:05;;;;;;;7.63;3.60;;;;;;;;;;5279742;27;20130;-81
2024/04/19 01:54:35;;;;;;;6.45;3.30;;;;;;;;;;5278762;27;20019;-82
2024/04/19 01:57:05;;;;;;;6.07;2.88;;;;;;;;;;5278220;27;20035;-81
2024/04/19 01:59:35;;;;;;;8.25;3.33;;;;;;;;;;5279417;27;20031;-81
2024/04/19 02:02:07;;;;;;;11.32;3.50;;;;;;;;;;5279328;27;20022;-82
2024/04/19 02:04:37;;;;;;;11.50;3.40;;;;;;;;;;5249858;27;20018;-81
2024/04/19 02:07:07;;;;;;;7.55;3.50;;;;;;;;;;5279429;27;20031;-82
2024/04/19 02:09:38;;;;;;;9.63;3.40;;;;;;;;;;5278608;27;20399;-82
2024/04/19 02:12:08;;;;;;;8.48;3.17;;;;;;;;;;5279250;27;20026;-81
2024/04/19 02:14:38;;;;;;;7.28;3.33;;;;;;;;;;5278228;27;20034;-82
2024/04/19 02:17:08;;;;;;;8.75;3.78;;;;;;;;;;5248991;27;20022;-83
2024/04/19 02:19:39;;;;;;;7.40;3.13;;;;;;;;;;5277622;27;20461;-81
2024/04/19 02:22:10;;;;;;;8.60;3.63;;;;;;;;;;5221211;27;20184;-82
2024/04/19 02:24:40;;;;;;;7.85;2.90;;;;;;;;;;5249909;27;20022;-81
2024/04/19 02:32:49;;;;;;;8.82;3.40;;;;;;;;;;5278967;27;20030;-82
2024/04/19 02:35:19;;;;;;;14.05;3.83;;;;;;;;;;5249689;27;20018;-83
2024/04/19 02:37:50;;;;;;;7.93;3.28;;;;;;;;;;5279295;27;20461;-82
2024/04/19 02:40:21;;;;;;;7.65;3.80;;;;;;;;;;5278026;27;20030;-81
2024/04/19 02:42:51;;;;;;;7.03;3.22;;;;;;;;;;5278750;27;20043;-81
2024/04/19 02:45:21;;;;;;;10.73;3.90;;;;;;;;;;5278760;27;20022;-82
2024/04/19 02:47:51;;;;;;;7.97;3.33;;;;;;;;;;5278687;27;20455;-83
2024/04/19 02:50:21;;;;;;;10.25;4.25;;;;;;;;;;5278493;27;20360;-81
2024/04/19 02:52:51;;;;;;;7.70;3.47;;;;;;;;;;5279106;27;20022;-84
2024/04/19 02:55:25;;;;;;;9.10;3.42;;;;;;;;;;5250359;27;20477;-83
2024/04/19 02:57:55;;;;;;;11.38;3.50;;;;;;;;;;5277953;27;20481;-82
2024/04/19 03:00:41;;;;;;;9.63;3.63;;;;;;;;;;5278633;27;20042;-82
2024/04/19 03:03:12;;;;;;;9.07;3.45;;;;;;;;;;5278795;27;20018;-81
2024/04/19 03:05:42;;;;;;;8.80;3.67;;;;;;;;;;5278473;27;20027;-81
2024/04/19 03:08:12;;;;;;;11.45;4.35;;;;;;;;;;5279093;27;20358;-81
2024/04/19 03:10:42;;;;;;;7.63;3.47;;;;;;;;;;5276180;27;20470;-80
2024/04/19 03:13:13;;;;;;;11.23;4.63;;;;;;;;;;5249164;27;20386;-81
2024/04/19 03:15:43;;;;;;;10.55;3.72;;;;;;;;;;5278742;27;20022;-81
2024/04/19 03:18:35;;;;;;;8.75;3.70;;;;;;;;;;5278097;27;20022;-81
2024/04/19 03:21:05;;;;;;;8.40;3.78;;;;;;;;;;5278136;27;20022;-82
2024/04/19 03:23:35;;;;;;;7.72;3.45;;;;;;;;;;5278782;27;20026;-81
2024/04/19 03:26:06;;;;;;;10.13;4.03;;;;;;;;;;5278210;27;20030;-83
2024/04/19 03:28:36;;;;;;;14.02;4.18;;;;;;;;;;5278914;27;20018;-81
2024/04/19 03:31:10;;;;;;;8.45;3.42;;;;;;;;;;5278691;27;20035;-83
2024/04/19 03:33:40;;;;;;;12.55;3.85;;;;;;;;;;5277062;27;20023;-84
2024/04/19 03:36:11;;;;;;;10.38;4.20;;;;;;;;;;5220398;27;20034;-83
2024/04/19 03:38:41;;;;;;;14.10;4.55;;;;;;;;;;5278112;27;20481;-81
2024/04/19 03:41:11;;;;;;;10.52;3.80;;;;;;;;;;5278451;27;20023;-81
2024/04/19 03:45:39;;;;;;;9.55;3.75;;;;;;;;;;5277935;27;20028;-82
2024/04/19 03:46:32;;;;;;;10.05;4.18;;;;;;;;;;5278458;27;20027;-81
2024/04/19 03:49:02;;;;;;;8.98;4.15;;;;;;;;;;5277155;27;20019;-83
2024/04/19 03:51:33;;;;;;;9.02;3.80;;;;;;;;;;5247690;27;20032;-80
2024/04/19 03:54:03;;;;;;;9.10;3.50;;;;;;;;;;5247297;27;20030;-80
2024/04/19 03:56:34;;;;;;;8.57;3.85;;;;;;;;;;5248602;27;20022;-81
2024/04/19 03:59:04;;;;;;;9.70;4.32;;;;;;;;;;5277917;27;20019;-81
2024/04/19 04:01:34;;;;;;;11.38;4.30;;;;;;;;;;5248413;27;20473;-81
2024/04/19 04:04:07;;;;;;;10.40;4.22;;;;;;;;;;5248068;27;20026;-81
2024/04/19 04:06:38;;;;;;;10.20;4.45;;;;;;;;;;5247430;27;20026;-80
2024/04/19 04:09:08;;;;;;;10.52;4.22;;;;;;;;;;5277451;27;20027;-81
2024/04/19 04:11:38;;;;;;;9.95;3.88;;;;;;;;;;5277038;27;20035;-83
2024/04/19 04:14:08;;;;;;;10.68;4.00;;;;;;;;;;5277610;27;20465;-81
2024/04/19 04:16:38;;;;;;;9.95;3.75;;;;;;;;;;5276997;27;20034;-83
2024/04/19 04:19:08;;;;;;;9.02;3.75;;;;;;;;;;5284416;27;20019;-80
2024/04/19 04:21:39;;;;;;;10.70;3.75;;;;;;;;;;5284625;27;20453;-81
2024/04/19 04:24:09;;;;;;;10.50;4.10;;;;;;;;;;5280846;27;20031;-81
2024/04/19 04:26:38;;;;;;;9.80;3.92;;;;;;;;;;5277352;27;20010;-81
2024/04/19 04:29:08;;;;;;;10.90;3.75;;;;;;;;;;5219606;27;20026;-83
2024/04/19 04:31:38;;;;;;;10.38;3.88;;;;;;;;;;5277633;27;20034;-81
2024/04/19 04:34:09;;;;;;;10.38;4.05;;;;;;;;;;5276999;27;20035;-83
2024/04/19 04:36:40;;;;;;;11.38;3.95;;;;;;;;;;5247145;27;20433;-83
2024/04/19 04:39:10;;;;;;;9.93;3.70;;;;;;;;;;5247633;27;20107;-81
2024/04/19 04:41:41;;;;;;;7.93;3.78;;;;;;;;;;5277236;27;20022;-83
2024/04/19 04:44:12;;;;;;;7.82;3.45;;;;;;;;;;5247427;27;20361;-80
2024/04/19 04:46:44;;;;;;;10.32;4.03;;;;;;;;;;5222267;27;20034;-83
2024/04/19 04:49:14;;;;;;;8.85;4.07;;;;;;;;;;5280828;27;20026;-81
2024/04/19 04:51:45;;;;;;;8.55;3.83;;;;;;;;;;5280503;27;20023;-80
2024/04/19 04:54:15;;;;;;;8.48;4.05;;;;;;;;;;5280304;27;20030;-79
2024/04/19 04:56:47;;;;;;;13.18;5.03;;;;;;;;;;5281061;27;20043;-80
2024/04/19 04:59:17;;;;;;;11.95;4.40;;;;;;;;;;5251179;27;20022;-81
2024/04/19 05:01:47;;;;;;;9.15;4.25;;;;;;;;;;5248798;27;20031;-81
2024/04/19 05:04:17;;;;;;;11.20;4.35;;;;;;;;;;5251451;27;20022;-81
2024/04/19 05:06:47;;;;;;;10.02;3.60;;;;;;;;;;5250951;27;20022;-80
2024/04/19 05:09:17;;;;;;;8.95;3.83;;;;;;;;;;5280022;27;20030;-79
2024/04/19 05:11:47;;;;;;;9.80;4.60;;;;;;;;;;5280455;27;20022;-79
2024/04/19 05:14:17;;;;;;;8.43;3.90;;;;;;;;;;5280025;27;20477;-81
2024/04/19 05:16:47;;;;;;;14.15;4.53;;;;;;;;;;5280025;27;20034;-80
2024/04/19 05:19:17;;;;;;;12.18;5.18;;;;;;;;;;5279873;27;20346;-82
2024/04/19 05:21:47;;;;;;;12.85;4.07;;;;;;;;;;5251376;27;20030;-80
2024/04/19 05:24:17;;;;;;;11.25;4.00;;;;;;;;;;5280190;27;20026;-81
2024/04/19 05:26:48;;;;;;;11.68;3.78;;;;;;;;;;5280044;27;20465;-82
2024/04/19 05:29:18;;;;;;;17.25;4.22;;;;;;;;;;5280449;27;20022;-81
2024/04/19 05:31:48;;;;;;;8.15;4.00;;;;;;;;;;5280556;27;20018;-80
2024/04/19 05:34:19;;;;;;;8.50;3.42;;;;;;;;;;5279841;27;20453;-80
2024/04/19 05:36:50;;;;;;;11.20;4.07;;;;;;;;;;5279659;27;20465;-83
2024/04/19 05:39:20;;;;;;;8.25;3.30;;;;;;;;;;5248962;27;20022;-80
2024/04/19 05:41:49;;;;;;;7.72;3.70;;;;;;;;;;5279743;27;20026;-80
2024/04/19 05:44:19;;;;;;;9.02;3.47;;;;;;;;;;5279659;27;20022;-80
2024/04/19 05:46:52;;;;;;;10.43;3.33;;;;;;;;;;5279455;27;20022;-80
2024/04/19 05:49:22;;;;;;;9.48;3.70;;;;;;;;;;5279821;27;20022;-80
2024/04/19 05:51:53;;;;;;;5.97;3.08;;;;;;;;;;5279812;27;20019;-80
2024/04/19 05:54:23;;;;;;;7.85;3.47;;;;;;;;;;5250646;27;20023;-82
2024/04/19 05:56:54;;;;;;;10.57;3.33;;;;;;;;;;5278338;27;20023;-79
2024/04/19 05:59:24;;;;;;;8.95;3.63;;;;;;;;;;5279358;27;20513;-79
2024/04/19 06:01:54;;;;;;;9.07;3.58;;;;;;;;;;5279503;27;20022;-81
2024/04/19 06:04:35;;;;;;;7.07;3.90;;;;;;;;;;5279510;27;20027;-81
2024/04/19 06:07:05;;;;;;;13.43;4.03;;;;;;;;;;5279294;27;20022;-80
2024/04/19 06:09:36;;;;;;;8.52;3.67;;;;;;;;;;5250151;27;20014;-82
2024/04/19 06:12:06;;;;;;;9.15;4.07;;;;;;;;;;5248550;27;20034;-80
2024/04/19 06:14:37;;;;;;;10.95;4.25;;;;;;;;;;5279488;27;20123;-80
2024/04/19 06:17:07;;;;;;;9.45;4.65;;;;;;;;;;5279382;27;20022;-81
2024/04/19 06:19:39;;;;;;;9.82;3.85;;;;;;;;;;5279237;27;20026;-81
2024/04/19 06:22:10;;;;;;;10.38;3.90;;;;;;;;;;5279134;27;20022;-82
2024/04/19 06:24:40;;;;;;;11.77;4.05;;;;;;;;;;5279248;27;20022;-80
2024/04/19 06:27:10;;;;;;;15.23;4.35;;;;;;;;;;5279274;27;20030;-81
2024/04/19 06:29:39;;;;;;;9.52;4.15;;;;;;;;;;5279136;27;20019;-81
2024/04/19 06:32:10;;;;;;;11.57;4.32;;;;;;;;;;5250003;27;20390;-81
2024/04/19 06:34:40;;;;;;;7.10;3.67;;;;;;;;;;5278956;27;20027;-80
2024/04/19 06:37:10;;;;;;;9.25;3.70;;;;;;;;;;5222694;27;20026;-80
2024/04/19 06:39:41;;;;;;;11.15;4.22;;;;;;;;;;5279726;27;20018;-80
2024/04/19 06:42:30;;;;;;;9.82;4.30;;;;;;;;;;5243616;27;20026;-80
2024/04/19 06:45:00;;;;;;;9.80;4.20;;;;;;;;;;5279073;27;20457;-79
2024/04/19 06:47:35;;;;;;;11.23;3.92;;;;;;;;;;5248786;27;20026;-81
2024/04/19 06:50:06;;;;;;;9.85;3.78;;;;;;;;;;5247640;27;20034;-82
2024/04/19 06:52:35;;;;;;;9.40;3.60;;;;;;;;;;5278958;27;20035;-82
2024/04/19 06:55:05;;;;;;;14.02;4.43;;;;;;;;;;5248465;27;20446;-80
2024/04/19 06:57:36;;;;;;;9.38;3.65;;;;;;;;;;5276361;27;20019;-79
2024/04/19 07:00:06;;;;;;;10.02;4.15;;;;;;;;;;5279252;27;20011;-81
2024/04/19 07:02:55;;;;;;;9.73;3.88;;;;;;;;;;5254161;27;20430;-80
2024/04/19 07:05:29;;;;;;;13.77;4.45;;;;;;;;;;5278693;27;20030;-80
2024/04/19 07:07:59;;;;;;;9.57;3.83;;;;;;;;;;5278019;27;20018;-81
2024/04/19 07:10:30;;;;;;;11.77;3.97;;;;;;;;;;5278707;27;20031;-79
2024/04/19 07:13:00;;;;;;;12.32;4.47;;;;;;;;;;5278678;27;20019;-80
2024/04/19 07:15:31;;;;;;;13.23;4.60;;;;;;;;;;5247129;27;20034;-80
2024/04/19 07:18:01;;;;;;;11.73;4.10;;;;;;;;;;5278164;27;20039;-80
2024/04/19 07:20:32;;;;;;;11.77;5.13;;;;;;;;;;5278327;27;20361;-80
2024/04/19 07:23:04;;;;;;;12.75;4.43;;;;;;;;;;5278409;27;20030;-80
2024/04/19 07:25:34;;;;;;;12.23;4.47;;;;;;;;;;5249260;27;20023;-81
2024/04/19 07:28:04;;;;;;;13.23;4.75;;;;;;;;;;5249017;27;20190;-80
2024/04/19 07:30:34;;;;;;;11.13;4.80;;;;;;;;;;5278401;27;20022;-80
2024/04/19 07:33:05;;;;;;;15.35;4.93;;;;;;;;;;5248407;27;20034;-79
2024/04/19 07:35:36;;;;;;;15.80;4.70;;;;;;;;;;5249464;27;20027;-81
2024/04/19 07:38:06;;;;;;;15.60;5.70;;;;;;;;;;5248678;27;20366;-81
2024/04/19 07:40:36;;;;;;;15.50;4.90;;;;;;;;;;5278221;27;20026;-81
2024/04/19 07:43:06;;;;;;;11.30;4.60;;;;;;;;;;5278312;27;20022;-79
2024/04/19 07:45:37;;;;;;;11.07;4.65;;;;;;;;;;5277903;27;20429;-79
2024/04/19 07:48:08;;;;;;;;;;;;;;;;;;5278407;27;20031;-80
2024/04/19 07:50:40;;;;;;;13.73;4.70;;;;;;;;;;5278295;27;20379;-79
2024/04/19 07:53:10;;;;;;;12.80;4.55;;;;;;;;;;5277891;27;20035;-80
2024/04/19 07:55:40;;;;;;;16.02;5.15;;;;;;;;;;5249025;27;20027;-81
2024/04/19 07:58:13;;;;;;;13.93;4.55;;;;;;;;;;5278031;27;20022;-80
2024/04/19 08:00:47;;;;;;;13.80;5.32;;;;;;;;;;5248787;27;20030;-79
2024/04/19 08:03:18;;;;;;;9.80;4.20;;;;;;;;;;5248762;27;20022;-81
2024/04/19 08:05:50;;;;;;;17.50;5.60;;;;;;;;;;5247202;27;20501;-79
2024/04/19 08:08:21;;;;;;;10.15;4.65;;;;;;;;;;5264773;27;20023;-81
2024/04/19 08:10:51;;;;;;;11.85;4.35;;;;;;;;;;5277887;27;20022;-81
2024/04/19 08:13:24;;;;;;;15.05;5.50;;;;;;;;;;5277574;27;20374;-81
2024/04/19 08:15:54;;;;;;;11.63;4.95;;;;;;;;;;5247550;27;20469;-79
2024/04/19 08:18:24;;;;;;;10.65;4.38;;;;;;;;;;5277338;27;20035;-80
2024/04/19 08:20:54;;;;;;;10.75;4.30;;;;;;;;;;5249732;27;20019;-82
2024/04/19 08:23:28;;;;;;;10.95;4.68;;;;;;;;;;5280644;27;20113;-80
2024/04/19 08:25:59;;;;;;;12.93;4.50;;;;;;;;;;5280759;27;20031;-78
2024/04/19 08:28:28;;;;;;;14.75;5.18;;;;;;;;;;5280555;27;20019;-80
2024/04/19 08:30:58;;;;;;;16.27;5.00;;;;;;;;;;5251440;27;20026;-80
2024/04/19 08:33:30;;;;;;;22.55;5.63;;;;;;;;;;5251760;27;20023;-79
2024/04/19 08:36:00;;;;;;;17.42;5.97;;;;;;;;;;5281022;27;20364;-79
2024/04/19 08:38:31;;;;;;;16.05;5.30;;;;;;;;;;5252334;27;20023;-80
2024/04/19 08:41:04;;;;;;;17.55;5.07;;;;;;;;;;5260181;27;20019;-80
2024/04/19 08:43:35;;;;;;;16.88;5.47;;;;;;;;;;5289653;27;19998;-81
2024/04/19 08:46:07;;;;;;;13.65;5.07;;;;;;;;;;5250625;27;20513;-79
2024/04/19 08:48:38;;;;;;;14.57;4.90;;;;;;;;;;5281004;27;20022;-80
2024/04/19 08:51:13;;;;;;;14.20;4.68;;;;;;;;;;5280481;27;20027;-81
2024/04/19 08:53:58;;;;;;;11.57;4.50;;;;;;;;;;5250167;27;20026;-82
2024/04/19 08:56:29;;;;;;;15.05;4.63;;;;;;;;;;5280514;27;20019;-80
2024/04/19 08:59:00;;;;;;;19.05;5.05;;;;;;;;;;5279529;27;20421;-82
2024/04/19 09:01:30;;;;;;;14.00;4.90;;;;;;;;;;5250068;27;20457;-80
2024/04/19 09:04:00;;;;;;;14.10;4.90;;;;;;;;;;5280367;27;20030;-80
2024/04/19 09:06:30;;;;;;;11.80;4.80;;;;;;;;;;5280172;27;20018;-79
2024/04/19 09:09:00;;;;;;;14.25;4.45;;;;;;;;;;5250961;27;20027;-79
2024/04/19 09:11:31;;;;;;;12.77;4.25;;;;;;;;;;5224005;27;20022;-79
2024/04/19 09:14:01;;;;;;;16.40;5.03;;;;;;;;;;5280035;27;20027;-81
2024/04/19 09:16:33;;;;;;;10.43;4.43;;;;;;;;;;5280249;27;20031;-80
2024/04/19 09:19:03;;;;;;;10.38;4.20;;;;;;;;;;5279766;27;20026;-79
2024/04/19 09:21:35;;;;;;;12.40;4.55;;;;;;;;;;5251494;27;20346;-80
2024/04/19 09:24:09;;;;;;;11.35;5.22;;;;;;;;;;5280131;27;20031;-81
2024/04/19 09:26:42;;;;;;;10.30;4.72;;;;;;;;;;5224011;27;20478;-80
2024/04/19 09:29:12;;;;;;;12.02;5.20;;;;;;;;;;5247229;27;20031;-79
2024/04/19 09:31:46;;;;;;;15.95;7.03;;;;;;;;;;5217354;27;20023;-79
2024/04/19 09:34:16;;;;;;;16.38;6.75;;;;;;;;;;5246381;27;20035;-80
2024/04/19 09:36:49;;;;;;;14.63;6.15;;;;;;;;;;5245293;27;20034;-82
2024/04/19 09:39:20;;;;;;;14.48;5.13;;;;;;;;;;5245002;27;20030;-81
2024/04/19 09:41:52;;;;;;;15.18;5.30;;;;;;;;;;5215468;27;20188;-79
2024/04/19 09:44:27;;;;;;;11.13;4.35;;;;;;;;;;5217123;27;20044;-81
2024/04/19 09:47:05;;;;;;;11.82;4.85;;;;;;;;;;5217374;27;20040;-82
2024/04/19 09:49:40;;;;;;;11.90;4.03;;;;;;;;;;5246007;27;20019;-80
2024/04/19 09:52:22;;;;;;;12.32;5.00;;;;;;;;;;5245798;27;20023;-80
2024/04/19 09:55:09;;;;;;;15.07;5.35;;;;;;;;;;5188989;27;20462;-79
2024/04/19 09:57:41;;;;;;;13.77;4.75;;;;;;;;;;5246592;27;20044;-81
2024/04/19 10:00:14;;;;;;;15.63;5.03;;;;;;;;;;5245870;27;20019;-80
2024/04/19 10:02:46;;;;;;;11.57;4.22;;;;;;;;;;5217261;27;20031;-80
2024/04/19 10:05:18;;;;;;;13.85;5.18;;;;;;;;;;5245683;27;20035;-80
2024/04/19 10:07:53;;;;;;;12.32;4.82;;;;;;;;;;5245438;27;20133;-82
2024/04/19 10:10:24;;;;;;;18.02;4.72;;;;;;;;;;5245026;27;20043;-80
2024/04/19 10:12:53;;;;;;;14.52;5.10;;;;;;;;;;5275921;27;20038;-81
2024/04/19 10:15:24;;;;;;;12.38;5.07;;;;;;;;;;5248804;27;20026;-79
2024/04/19 10:17:54;;;;;;;12.70;4.72;;;;;;;;;;5250377;27;20023;-80
2024/04/19 10:20:25;;;;;;;10.65;4.45;;;;;;;;;;5264992;27;20067;-81
2024/04/19 10:22:58;;;;;;;13.45;5.03;;;;;;;;;;5246980;27;20034;-80
2024/04/19 10:25:38;;;;;;;17.30;5.53;;;;;;;;;;5244495;27;20034;-80
2024/04/19 10:28:12;;;;;;;11.60;4.88;;;;;;;;;;5245320;27;20054;-79
2024/04/19 10:30:42;;;;;;;15.70;5.03;;;;;;;;;;5275552;27;20030;-81
2024/04/19 10:33:12;;;;;;;19.10;5.25;;;;;;;;;;5276087;27;20046;-79
2024/04/19 10:35:46;;;;;;;13.70;5.85;;;;;;;;;;5275134;27;20382;-81
2024/04/19 10:38:17;;;;;;;16.30;5.45;;;;;;;;;;5257460;27;20093;-79
2024/04/19 10:40:48;;;;;;;19.50;5.47;;;;;;;;;;5245856;27;20858;-81
2024/04/19 10:43:18;;;;;;;16.05;6.10;;;;;;;;;;5245217;27;20038;-80
2024/04/19 10:45:48;;;;;;;13.98;5.47;;;;;;;;;;5271026;27;20035;-80
2024/04/19 10:48:20;;;;;;;14.93;4.43;;;;;;;;;;5272214;27;20039;-80
2024/04/19 10:50:52;;;;;;;10.82;3.85;;;;;;;;;;5279031;27;20486;-81
2024/04/19 10:53:22;;;;;;;10.13;4.28;;;;;;;;;;5211703;27;20035;-81
2024/04/19 10:55:52;;;;;;;10.38;4.95;;;;;;;;;;5182652;27;20033;-81
2024/04/19 10:58:23;;;;;;;19.08;6.25;;;;;;;;;;5211583;27;20480;-80
2024/04/19 11:00:53;;;;;;;14.05;5.20;;;;;;;;;;5182907;27;20024;-81
2024/04/19 11:03:25;;;;;;;12.32;6.10;;;;;;;;;;5192607;27;20154;-81
2024/04/19 11:05:57;;;;;;;17.38;8.50;;;;;;;;;;5248625;27;20022;-80
2024/04/19 11:08:27;;;;;;;13.98;6.55;;;;;;;;;;5237465;27;20030;-80
2024/04/19 11:10:58;;;;;;;11.48;5.57;;;;;;;;;;5251069;27;20363;-81
2024/04/19 11:13:28;;;;;;;10.88;5.70;;;;;;;;;;5210854;27;20038;-81
2024/04/19 11:15:58;;;;;;;14.85;4.95;;;;;;;;;;5215101;27;20043;-82
2024/04/19 11:18:28;;;;;;;12.18;5.38;;;;;;;;;;5213730;27;20031;-81
2024/04/19 11:20:59;;;;;;;10.80;5.45;;;;;;;;;;5247023;27;20477;-81
2024/04/19 11:23:39;;;;;;;13.30;6.82;;;;;;;;;;5277488;27;20034;-81
2024/04/19 11:26:09;;;;;;;16.15;5.63;;;;;;;;;;5278110;27;20465;-83
2024/04/19 11:28:44;;;;;;;9.55;4.68;;;;;;;;;;5276267;27;20034;-80
2024/04/19 11:31:15;;;;;;;9.13;5.68;;;;;;;;;;5260623;27;20048;-81
2024/04/19 11:33:51;;;;;;;26.75;16.45;;;;;;;;;;5242410;27;20030;-82
2024/04/19 11:36:24;;;;;;;15.35;6.97;;;;;;;;;;5245802;27;20030;-81
2024/04/19 11:38:56;;;;;;;9.23;5.25;;;;;;;;;;5271239;27;20026;-80
2024/04/19 11:41:26;;;;;;;10.88;5.25;;;;;;;;;;5275198;27;20333;-80
2024/04/19 11:43:58;;;;;;;7.28;4.22;;;;;;;;;;5247585;27;20034;-80
2024/04/19 11:46:29;;;;;;;11.23;4.70;;;;;;;;;;5277257;27;20034;-79
2024/04/19 11:49:03;;;;;;;11.20;3.85;;;;;;;;;;5277169;27;20205;-80
2024/04/19 11:51:37;;;;;;;10.05;4.15;;;;;;;;;;5271754;27;20038;-80
2024/04/19 11:54:07;;;;;;;10.80;4.90;;;;;;;;;;5214105;27;20042;-80
2024/04/19 11:56:38;;;;;;;21.60;10.27;;;;;;;;;;5240485;27;20034;-80
2024/04/19 11:59:08;;;;;;;14.75;5.45;;;;;;;;;;5257432;27;20038;-78
2024/04/19 12:01:38;;;;;;;13.45;6.03;;;;;;;;;;5262164;27;20481;-80
2024/04/19 12:04:08;;;;;;;39.13;10.57;;;;;;;;;;5242481;27;20042;-80
2024/04/19 12:06:39;;;;;;;17.60;6.95;;;;;;;;;;5231321;27;20034;-79
2024/04/19 12:09:09;;;;;;;21.13;6.00;;;;;;;;;;5275743;27;20050;-80
2024/04/19 12:11:41;;;;;;;18.90;7.35;;;;;;;;;;5276166;27;20042;-80
2024/04/19 12:14:36;;;;;;;83.07;27.77;;;;;;;;;;5276034;27;20034;-80
2024/04/19 12:17:27;;;;;;;56.92;17.63;;;;;;;;;;5276866;27;20035;-81
2024/04/19 12:19:58;;;;;;;20.98;7.70;;;;;;;;;;5274817;27;20034;-80
2024/04/19 12:22:43;;;;;;;19.48;6.65;;;;;;;;;;5274782;27;20033;-80
2024/04/19 12:25:26;;;;;;;23.10;6.53;;;;;;;;;;5209318;27;20035;-80
2024/04/19 12:27:59;;;;;;;29.35;11.18;;;;;;;;;;5181880;27;20035;-81
2024/04/19 12:30:30;;;;;;;9.30;3.72;;;;;;;;;;5271197;27;20043;-81
2024/04/19 12:33:01;;;;;;;10.88;4.28;;;;;;;;;;5273527;27;20046;-79
2024/04/19 12:35:34;;;;;;;15.75;4.93;;;;;;;;;;5274630;27;20038;-80
2024/04/19 12:38:06;;;;;;;14.70;5.50;;;;;;;;;;5275377;27;20031;-80
2024/04/19 12:40:37;;;;;;;11.95;4.10;;;;;;;;;;5273772;27;20112;-79
2024/04/19 12:43:11;;;;;;;13.35;4.00;;;;;;;;;;5243666;27;20030;-81
2024/04/19 12:45:48;;;;;;;6.50;3.00;;;;;;;;;;5264961;27;20034;-80
2024/04/19 12:48:19;;;;;;;5.90;1.85;;;;;;;;;;5276664;27;20058;-80
2024/04/19 12:50:50;;;;;;;5.70;2.70;;;;;;;;;;5274247;27;20031;-79
2024/04/19 12:53:20;;;;;;;5.53;2.00;;;;;;;;;;5230403;27;20035;-78
2024/04/19 12:55:49;;;;;;;4.00;1.83;;;;;;;;;;5227942;27;20038;-79
2024/04/19 12:58:21;;;;;;;14.77;1.83;;;;;;;;;;5274932;27;20026;-82
2024/04/19 13:00:51;;;;;;;3.38;1.33;;;;;;;;;;5275450;27;20018;-80
2024/04/19 13:03:24;;;;;;;2.33;1.50;;;;;;;;;;5283259;27;20468;-80
2024/04/19 13:05:54;;;;;;;2.80;1.00;;;;;;;;;;5276573;27;20030;-79
2024/04/19 13:08:24;;;;;;;6.13;1.40;;;;;;;;;;5282533;27;20034;-80
2024/04/19 13:10:54;;;;;;;2.45;0.95;;;;;;;;;;5279553;27;20054;-80
2024/04/19 13:13:24;;;;;;;3.88;1.25;;;;;;;;;;5250145;27;20031;-80
2024/04/19 13:15:54;;;;;;;5.13;1.25;;;;;;;;;;5248913;27;20029;-80
2024/04/19 13:18:25;;;;;;;2.78;1.08;;;;;;;;;;5279379;27;20022;-80
2024/04/19 13:20:55;;;;;;;4.93;1.10;;;;;;;;;;5277929;27;20106;-80
2024/04/19 13:23:27;;;;;;;;;;;;;;;;;;5276499;27;20038;-80
2024/04/19 13:25:57;;;;;;;5.50;1.40;;;;;;;;;;5276083;27;19951;-80
2024/04/19 13:28:28;;;;;;;4.68;1.10;;;;;;;;;;5278295;27;20037;-81
2024/04/19 13:30:58;;;;;;;5.85;1.02;;;;;;;;;;5279200;27;20461;-80
2024/04/19 13:33:29;;;;;;;1.90;1.05;;;;;;;;;;5279213;27;20046;-80
2024/04/19 13:35:59;;;;;;;2.38;1.08;;;;;;;;;;5279797;27;20034;-81
2024/04/19 13:38:29;;;;;;;2.78;0.82;;;;;;;;;;5260670;27;20039;-83
2024/04/19 13:40:59;;;;;;;2.95;1.10;;;;;;;;;;5277534;27;20478;-80
2024/04/19 13:43:30;;;;;;;1.90;1.13;;;;;;;;;;5278523;27;20034;-80
2024/04/19 13:46:03;;;;;;;3.10;1.55;;;;;;;;;;5280449;27;20030;-78
2024/04/19 13:48:39;;;;;;;2.75;1.20;;;;;;;;;;5283812;27;20042;-81
2024/04/19 13:51:10;;;;;;;4.22;1.25;;;;;;;;;;5249093;27;20026;-80
2024/04/19 13:53:41;;;;;;;2.72;0.90;;;;;;;;;;5283884;27;20097;-81
2024/04/19 13:56:23;;;;;;;3.25;0.93;;;;;;;;;;5274181;27;20006;-81
2024/04/19 13:58:53;;;;;;;2.92;1.20;;;;;;;;;;5280194;27;20022;-81
2024/04/19 14:01:23;;;;;;;3.92;0.98;;;;;;;;;;5280724;27;20035;-82
2024/04/19 14:03:55;;;;;;;3.63;1.40;;;;;;;;;;5282667;27;20031;-80
2024/04/19 14:06:25;;;;;;;1.85;0.90;;;;;;;;;;5272901;27;20042;-80
2024/04/19 14:08:55;;;;;;;2.10;1.20;;;;;;;;;;5238786;27;20367;-80
2024/04/19 14:11:25;;;;;;;4.15;1.40;;;;;;;;;;5277886;27;20030;-81
2024/04/19 14:13:55;;;;;;;6.47;1.40;;;;;;;;;;5276878;27;20034;-82
2024/04/19 14:16:26;;;;;;;3.00;1.20;;;;;;;;;;5275657;27;20030;-81
2024/04/19 14:18:56;;;;;;;2.58;1.50;;;;;;;;;;5276183;27;20030;-80
2024/04/19 14:21:29;;;;;;;4.10;1.30;;;;;;;;;;5278646;27;20035;-80
2024/04/19 14:23:59;;;;;;;6.18;1.70;;;;;;;;;;5257454;27;20038;-82
2024/04/19 14:26:31;;;;;;;4.40;1.73;;;;;;;;;;5277345;27;20090;-80
2024/04/19 14:29:01;;;;;;;4.00;1.60;;;;;;;;;;5276902;27;20341;-81
2024/04/19 14:31:31;;;;;;;2.00;1.00;;;;;;;;;;5278197;27;20038;-81
2024/04/19 14:34:00;;;;;;;4.53;1.98;;;;;;;;;;5277353;27;20030;-82
2024/04/19 14:36:31;;;;;;;3.78;1.05;;;;;;;;;;5277905;27;20023;-81
2024/04/19 14:39:03;;;;;;;1.85;1.00;;;;;;;;;;5271231;27;20022;-83
2024/04/19 14:41:34;;;;;;;0.95;0.63;;;;;;;;;;5207853;27;20047;-82
2024/04/19 14:44:04;;;;;;;1.85;0.90;;;;;;;;;;5236476;27;20030;-82
2024/04/19 14:46:34;;;;;;;1.63;0.85;;;;;;;;;;5277048;27;20038;-81
2024/04/19 14:49:05;;;;;;;1.83;0.90;;;;;;;;;;5277780;27;20378;-82
2024/04/19 14:51:36;;;;;;;4.03;0.90;;;;;;;;;;5209430;27;20027;-81
2024/04/19 14:54:05;;;;;;;3.42;0.98;;;;;;;;;;5235410;27;20030;-81
2024/04/19 14:56:35;;;;;;;3.00;0.90;;;;;;;;;;5278483;27;20030;-81
2024/04/19 14:59:06;;;;;;;3.10;0.80;;;;;;;;;;5247550;27;20030;-82
2024/04/19 15:01:42;;;;;;;2.38;1.10;;;;;;;;;;5276259;27;20039;-86
2024/04/19 15:04:12;;;;;;;1.88;1.00;;;;;;;;;;5275670;27;20183;-83
2024/04/19 15:06:43;;;;;;;1.40;0.77;;;;;;;;;;5277332;27;20047;-82